^^
Station Historical Data
Daily Summary for March 13, 2017 Units:  Both    English   Metric
« Previous Day
Next Day »
Daily Weekly Monthly Yearly Custom
  High: Low: Average:
Temperature: 83.5 °F /  28.6 °C 57.4 °F /  14.1 °C 69.6 °F /  20.9 °C
Dew Point: 55.6 °F /  13.1 °C 47.7 °F /  8.7 °C 51.8 °F /  11 °C
Humidity: 81% 33% 55%
Wind Speed: 8.1mph /  13km/h - 1mph /  1.6km/h
Wind Gust: 11.0mph /  17.7km/h - -
Wind- - East
Pressure: 29.94 in /  1013.8 hPa 29.82 in /  1009.7 hPa -
Precipitation: 0.00 in /  0 mm    
Historical Graphs
 
 
Tabular Data for March 13, 2017
Time Temperature Dew Point Pressure Wind Wind Speed Wind Gust Humidity Rainfall Rate (Hourly) solar Conditions
00:01 63.0 °F /  17.2 °C 48.4 °F /  9.1 °C 29.92in /  1013.1hPa Calm   2.0mph /  3.2km/h 59% 0.00in /  0mm 0.0 W/m2
00:07 63.0 °F /  17.2 °C 48.0 °F /  8.9 °C 29.92in /  1013.1hPa Calm   2.0mph /  3.2km/h 58% 0.00in /  0mm 0.0 W/m2
00:15 62.8 °F /  17.1 °C 48.2 °F /  9 °C 29.92in /  1013.1hPa Calm   2.0mph /  3.2km/h 59% 0.00in /  0mm 0.0 W/m2
00:21 62.6 °F /  17 °C 48.0 °F /  8.9 °C 29.92in /  1013.1hPa ENE 0.9mph /  1.4km/h 3.0mph /  4.8km/h 59% 0.00in /  0mm 0.0 W/m2
00:27 62.4 °F /  16.9 °C 47.8 °F /  8.8 °C 29.92in /  1013.1hPa ESE 0.9mph /  1.4km/h 2.0mph /  3.2km/h 59% 0.00in /  0mm 0.0 W/m2
00:33 62.2 °F /  16.8 °C 47.7 °F /  8.7 °C 29.92in /  1013.1hPa Calm   2.0mph /  3.2km/h 59% 0.00in /  0mm 0.0 W/m2
00:39 62.2 °F /  16.8 °C 48.2 °F /  9 °C 29.92in /  1013.1hPa Calm   2.0mph /  3.2km/h 60% 0.00in /  0mm 0.0 W/m2
00:46 62.1 °F /  16.7 °C 48.0 °F /  8.9 °C 29.92in /  1013.1hPa Calm   1.0mph /  1.6km/h 60% 0.00in /  0mm 0.0 W/m2
00:52 62.1 °F /  16.7 °C 48.0 °F /  8.9 °C 29.92in /  1013.1hPa ENE 0.9mph /  1.4km/h 1.0mph /  1.6km/h 60% 0.00in /  0mm 0.0 W/m2
00:58 61.9 °F /  16.6 °C 47.8 °F /  8.8 °C 29.92in /  1013.1hPa Calm   1.0mph /  1.6km/h 60% 0.00in /  0mm 0.0 W/m2
01:02 61.9 °F /  16.6 °C 47.8 °F /  8.8 °C 29.92in /  1013.1hPa Calm   2.0mph /  3.2km/h 60% 0.00in /  0mm 0.0 W/m2
01:08 61.7 °F /  16.5 °C 48.2 °F /  9 °C 29.92in /  1013.1hPa Calm   2.0mph /  3.2km/h 61% 0.00in /  0mm 0.0 W/m2
01:14 61.5 °F /  16.4 °C 48.0 °F /  8.9 °C 29.92in /  1013.1hPa East 0.9mph /  1.4km/h 3.0mph /  4.8km/h 61% 0.00in /  0mm 0.0 W/m2
01:20 61.3 °F /  16.3 °C 47.8 °F /  8.8 °C 29.92in /  1013.1hPa Calm   2.0mph /  3.2km/h 61% 0.00in /  0mm 0.0 W/m2
01:26 61.2 °F /  16.2 °C 47.7 °F /  8.7 °C 29.92in /  1013.1hPa Calm     61% 0.00in /  0mm 0.0 W/m2
01:33 61.2 °F /  16.2 °C 47.7 °F /  8.7 °C 29.92in /  1013.1hPa Calm     61% 0.00in /  0mm 0.0 W/m2
01:39 61.2 °F /  16.2 °C 47.7 °F /  8.7 °C 29.92in /  1013.1hPa ESE 2.0mph /  3.2km/h 2.0mph /  3.2km/h 61% 0.00in /  0mm 0.0 W/m2
01:45 61.2 °F /  16.2 °C 47.7 °F /  8.7 °C 29.92in /  1013.1hPa Calm     61% 0.00in /  0mm 0.0 W/m2
01:51 61.0 °F /  16.1 °C 47.8 °F /  8.8 °C 29.92in /  1013.1hPa Calm   3.0mph /  4.8km/h 62% 0.00in /  0mm 0.0 W/m2
01:57 61.0 °F /  16.1 °C 47.8 °F /  8.8 °C 29.92in /  1013.1hPa Calm   3.0mph /  4.8km/h 62% 0.00in /  0mm 0.0 W/m2
02:03 61.0 °F /  16.1 °C 47.8 °F /  8.8 °C 29.91in /  1012.8hPa East 0.9mph /  1.4km/h 3.0mph /  4.8km/h 62% 0.00in /  0mm 0.0 W/m2
02:09 60.8 °F /  16 °C 47.7 °F /  8.7 °C 29.91in /  1012.8hPa East 0.9mph /  1.4km/h 3.0mph /  4.8km/h 62% 0.00in /  0mm 0.0 W/m2
02:16 60.6 °F /  15.9 °C 48.0 °F /  8.9 °C 29.91in /  1012.8hPa Calm     63% 0.00in /  0mm 0.0 W/m2
02:22 60.6 °F /  15.9 °C 48.0 °F /  8.9 °C 29.91in /  1012.8hPa Calm   2.0mph /  3.2km/h 63% 0.00in /  0mm 0.0 W/m2
02:28 60.4 °F /  15.8 °C 47.8 °F /  8.8 °C 29.91in /  1012.8hPa ESE 0.9mph /  1.4km/h 1.0mph /  1.6km/h 63% 0.00in /  0mm 0.0 W/m2
02:34 60.3 °F /  15.7 °C 48.0 °F /  8.9 °C 29.91in /  1012.8hPa ESE 0.9mph /  1.4km/h 2.0mph /  3.2km/h 64% 0.00in /  0mm 0.0 W/m2
02:40 60.1 °F /  15.6 °C 47.8 °F /  8.8 °C 29.91in /  1012.8hPa Calm   3.0mph /  4.8km/h 64% 0.00in /  0mm 0.0 W/m2
02:46 60.1 °F /  15.6 °C 48.2 °F /  9 °C 29.91in /  1012.8hPa Calm   2.0mph /  3.2km/h 65% 0.00in /  0mm 0.0 W/m2
02:52 59.9 °F /  15.5 °C 47.7 °F /  8.7 °C 29.91in /  1012.8hPa ENE 0.9mph /  1.4km/h 4.0mph /  6.4km/h 64% 0.00in /  0mm 0.0 W/m2
02:59 59.7 °F /  15.4 °C 48.0 °F /  8.9 °C 29.91in /  1012.8hPa ENE 0.9mph /  1.4km/h 3.0mph /  4.8km/h 65% 0.00in /  0mm 0.0 W/m2
03:05 59.9 °F /  15.5 °C 48.0 °F /  8.9 °C 29.91in /  1012.8hPa East 0.9mph /  1.4km/h 6.0mph /  9.7km/h 65% 0.00in /  0mm 0.0 W/m2
03:11 59.7 °F /  15.4 °C 48.4 °F /  9.1 °C 29.90in /  1012.4hPa ENE 0.9mph /  1.4km/h 2.0mph /  3.2km/h 66% 0.00in /  0mm 0.0 W/m2
03:17 59.7 °F /  15.4 °C 48.4 °F /  9.1 °C 29.90in /  1012.4hPa Calm   2.0mph /  3.2km/h 66% 0.00in /  0mm 0.0 W/m2
03:23 59.5 °F /  15.3 °C 48.2 °F /  9 °C 29.90in /  1012.4hPa East 0.9mph /  1.4km/h 3.0mph /  4.8km/h 66% 0.00in /  0mm 0.0 W/m2
03:29 59.5 °F /  15.3 °C 48.6 °F /  9.2 °C 29.90in /  1012.4hPa Calm   2.0mph /  3.2km/h 67% 0.00in /  0mm 0.0 W/m2
03:35 59.4 °F /  15.2 °C 48.4 °F /  9.1 °C 29.89in /  1012.1hPa Calm   1.0mph /  1.6km/h 67% 0.00in /  0mm 0.0 W/m2
03:41 59.4 °F /  15.2 °C 48.4 °F /  9.1 °C 29.89in /  1012.1hPa Calm   1.0mph /  1.6km/h 67% 0.00in /  0mm 0.0 W/m2
03:48 59.2 °F /  15.1 °C 48.6 °F /  9.2 °C 29.89in /  1012.1hPa Calm   3.0mph /  4.8km/h 68% 0.00in /  0mm 0.0 W/m2
03:54 59.2 °F /  15.1 °C 48.6 °F /  9.2 °C 29.89in /  1012.1hPa Calm   1.0mph /  1.6km/h 68% 0.00in /  0mm 0.0 W/m2
04:00 59.0 °F /  15 °C 48.9 °F /  9.4 °C 29.89in /  1012.1hPa Calm   1.0mph /  1.6km/h 69% 0.00in /  0mm 0.0 W/m2
04:06 58.8 °F /  14.9 °C 48.7 °F /  9.3 °C 29.89in /  1012.1hPa Calm   1.0mph /  1.6km/h 69% 0.00in /  0mm 0.0 W/m2
04:12 58.8 °F /  14.9 °C 48.7 °F /  9.3 °C 29.89in /  1012.1hPa Calm     69% 0.00in /  0mm 0.0 W/m2
04:18 58.6 °F /  14.8 °C 48.9 °F /  9.4 °C 29.89in /  1012.1hPa Calm   1.0mph /  1.6km/h 70% 0.00in /  0mm 0.0 W/m2
04:24 58.6 °F /  14.8 °C 48.9 °F /  9.4 °C 29.89in /  1012.1hPa Calm     70% 0.00in /  0mm 0.0 W/m2
04:30 58.6 °F /  14.8 °C 49.3 °F /  9.6 °C 29.89in /  1012.1hPa Calm     71% 0.00in /  0mm 0.0 W/m2
04:36 58.5 °F /  14.7 °C 49.1 °F /  9.5 °C 29.89in /  1012.1hPa Calm     71% 0.00in /  0mm 0.0 W/m2
04:43 58.5 °F /  14.7 °C 49.5 °F /  9.7 °C 29.89in /  1012.1hPa Calm     72% 0.00in /  0mm 0.0 W/m2
04:49 58.3 °F /  14.6 °C 49.6 °F /  9.8 °C 29.89in /  1012.1hPa Calm   2.0mph /  3.2km/h 73% 0.00in /  0mm 0.0 W/m2
04:55 58.1 °F /  14.5 °C 49.5 °F /  9.7 °C 29.89in /  1012.1hPa Calm   2.0mph /  3.2km/h 73% 0.00in /  0mm 0.0 W/m2
05:01 57.9 °F /  14.4 °C 49.6 °F /  9.8 °C 29.89in /  1012.1hPa East 0.9mph /  1.4km/h 2.0mph /  3.2km/h 74% 0.00in /  0mm 0.0 W/m2
05:07 57.9 °F /  14.4 °C 49.6 °F /  9.8 °C 29.90in /  1012.4hPa Calm     74% 0.00in /  0mm 0.0 W/m2
05:13 57.7 °F /  14.3 °C 49.8 °F /  9.9 °C 29.90in /  1012.4hPa ESE 2.9mph /  4.7km/h 4.0mph /  6.4km/h 75% 0.00in /  0mm 0.0 W/m2
05:19 57.7 °F /  14.3 °C 49.8 °F /  9.9 °C 29.90in /  1012.4hPa ESE 0.9mph /  1.4km/h 4.0mph /  6.4km/h 75% 0.00in /  0mm 0.0 W/m2
05:26 57.6 °F /  14.2 °C 50.0 °F /  10 °C 29.89in /  1012.1hPa East 0.9mph /  1.4km/h 4.0mph /  6.4km/h 76% 0.00in /  0mm 0.0 W/m2
05:32 57.6 °F /  14.2 °C 50.0 °F /  10 °C 29.90in /  1012.4hPa ENE 0.9mph /  1.4km/h 3.0mph /  4.8km/h 76% 0.00in /  0mm 0.0 W/m2
05:38 57.6 °F /  14.2 °C 50.0 °F /  10 °C 29.90in /  1012.4hPa Calm   3.0mph /  4.8km/h 76% 0.00in /  0mm 0.0 W/m2
05:44 57.6 °F /  14.2 °C 50.0 °F /  10 °C 29.90in /  1012.4hPa Calm     76% 0.00in /  0mm 0.0 W/m2
05:50 57.7 °F /  14.3 °C 50.2 °F /  10.1 °C 29.90in /  1012.4hPa Calm   1.0mph /  1.6km/h 76% 0.00in /  0mm 0.0 W/m2
05:56 57.7 °F /  14.3 °C 50.2 °F /  10.1 °C 29.90in /  1012.4hPa Calm   1.0mph /  1.6km/h 76% 0.00in /  0mm 0.0 W/m2
06:02 57.9 °F /  14.4 °C 50.4 °F /  10.2 °C 29.91in /  1012.8hPa Calm   1.0mph /  1.6km/h 76% 0.00in /  0mm 0.0 W/m2
06:09 58.1 °F /  14.5 °C 50.5 °F /  10.3 °C 29.91in /  1012.8hPa Calm   1.0mph /  1.6km/h 76% 0.00in /  0mm 0.0 W/m2
06:15 58.1 °F /  14.5 °C 50.5 °F /  10.3 °C 29.91in /  1012.8hPa Calm   2.0mph /  3.2km/h 76% 0.00in /  0mm 0.0 W/m2
06:21 58.1 °F /  14.5 °C 50.5 °F /  10.3 °C 29.91in /  1012.8hPa ENE 0.9mph /  1.4km/h 1.0mph /  1.6km/h 76% 0.00in /  0mm 0.0 W/m2
06:27 57.9 °F /  14.4 °C 50.7 °F /  10.4 °C 29.91in /  1012.8hPa Calm   2.0mph /  3.2km/h 77% 0.00in /  0mm 0.0 W/m2
06:33 57.7 °F /  14.3 °C 50.5 °F /  10.3 °C 29.91in /  1012.8hPa Calm   3.0mph /  4.8km/h 77% 0.00in /  0mm 0.0 W/m2
06:39 57.7 °F /  14.3 °C 50.5 °F /  10.3 °C 29.92in /  1013.1hPa Calm   3.0mph /  4.8km/h 77% 0.00in /  0mm 0.0 W/m2
06:45 57.7 °F /  14.3 °C 50.5 °F /  10.3 °C 29.92in /  1013.1hPa Calm   1.0mph /  1.6km/h 77% 0.00in /  0mm 0.0 W/m2
06:52 57.6 °F /  14.2 °C 50.4 °F /  10.2 °C 29.92in /  1013.1hPa Calm   1.0mph /  1.6km/h 77% 0.00in /  0mm 0.0 W/m2
06:58 57.6 °F /  14.2 °C 50.7 °F /  10.4 °C 29.92in /  1013.1hPa Calm   2.0mph /  3.2km/h 78% 0.00in /  0mm 5.0 W/m2
07:04 57.6 °F /  14.2 °C 50.7 °F /  10.4 °C 29.93in /  1013.4hPa Calm   1.0mph /  1.6km/h 78% 0.00in /  0mm 7.0 W/m2
07:10 57.4 °F /  14.1 °C 50.5 °F /  10.3 °C 29.93in /  1013.4hPa ESE 2.9mph /  4.7km/h 3.0mph /  4.8km/h 78% 0.00in /  0mm 9.0 W/m2
07:16 57.4 °F /  14.1 °C 50.9 °F /  10.5 °C 29.93in /  1013.4hPa Calm   2.0mph /  3.2km/h 79% 0.00in /  0mm 14.0 W/m2
07:22 57.4 °F /  14.1 °C 50.9 °F /  10.5 °C 29.93in /  1013.4hPa Calm   1.0mph /  1.6km/h 79% 0.00in /  0mm 16.0 W/m2
07:28 57.4 °F /  14.1 °C 51.3 °F /  10.7 °C 29.93in /  1013.4hPa Calm   1.0mph /  1.6km/h 80% 0.00in /  0mm 18.0 W/m2
07:34 57.6 °F /  14.2 °C 51.4 °F /  10.8 °C 29.93in /  1013.4hPa Calm     80% 0.00in /  0mm 19.0 W/m2
07:41 57.6 °F /  14.2 °C 51.8 °F /  11 °C 29.93in /  1013.4hPa Calm   1.0mph /  1.6km/h 81% 0.00in /  0mm 18.0 W/m2
07:47 57.7 °F /  14.3 °C 52.0 °F /  11.1 °C 29.93in /  1013.4hPa East 2.0mph /  3.2km/h 2.0mph /  3.2km/h 81% 0.00in /  0mm 19.0 W/m2
07:53 58.3 °F /  14.6 °C 52.5 °F /  11.4 °C 29.93in /  1013.4hPa Calm   2.0mph /  3.2km/h 81% 0.00in /  0mm 21.0 W/m2
07:59 58.8 °F /  14.9 °C 52.7 °F /  11.5 °C 29.93in /  1013.4hPa Calm   1.0mph /  1.6km/h 80% 0.00in /  0mm 23.0 W/m2
08:05 59.4 °F /  15.2 °C 52.9 °F /  11.6 °C 29.93in /  1013.4hPa East 0.9mph /  1.4km/h 1.0mph /  1.6km/h 79% 0.00in /  0mm 25.0 W/m2
08:11 60.1 °F /  15.6 °C 53.2 °F /  11.8 °C 29.93in /  1013.4hPa East 2.0mph /  3.2km/h 4.0mph /  6.4km/h 78% 0.00in /  0mm 25.0 W/m2
08:17 60.6 °F /  15.9 °C 53.4 °F /  11.9 °C 29.94in /  1013.8hPa Calm   4.0mph /  6.4km/h 77% 0.00in /  0mm 26.0 W/m2
08:22 61.0 °F /  16.1 °C 53.4 °F /  11.9 °C 29.94in /  1013.8hPa Calm   1.0mph /  1.6km/h 76% 0.00in /  0mm 26.0 W/m2
08:28 61.7 °F /  16.5 °C 53.2 °F /  11.8 °C 29.94in /  1013.8hPa Calm   2.0mph /  3.2km/h 74% 0.00in /  0mm 26.0 W/m2
08:34 62.6 °F /  17 °C 53.8 °F /  12.1 °C 29.94in /  1013.8hPa NE 2.0mph /  3.2km/h 4.0mph /  6.4km/h 73% 0.00in /  0mm 28.0 W/m2
08:40 63.5 °F /  17.5 °C 54.0 °F /  12.2 °C 29.94in /  1013.8hPa NNE 2.9mph /  4.7km/h 5.0mph /  8km/h 71% 0.00in /  0mm 28.0 W/m2
08:46 64.6 °F /  18.1 °C 53.8 °F /  12.1 °C 29.94in /  1013.8hPa ENE 2.0mph /  3.2km/h 5.0mph /  8km/h 68% 0.00in /  0mm 30.0 W/m2
08:52 65.7 °F /  18.7 °C 54.0 °F /  12.2 °C 29.94in /  1013.8hPa ENE 2.9mph /  4.7km/h 6.0mph /  9.7km/h 66% 0.00in /  0mm 30.0 W/m2
08:59 66.6 °F /  19.2 °C 54.0 °F /  12.2 °C 29.94in /  1013.8hPa NE 4.9mph /  7.9km/h 6.0mph /  9.7km/h 64% 0.00in /  0mm 33.0 W/m2
09:05 67.3 °F /  19.6 °C 53.8 °F /  12.1 °C 29.93in /  1013.4hPa ENE 0.9mph /  1.4km/h 7.0mph /  11.3km/h 62% 0.00in /  0mm 33.0 W/m2
09:11 67.8 °F /  19.9 °C 54.3 °F /  12.4 °C 29.94in /  1013.8hPa East 2.9mph /  4.7km/h 6.0mph /  9.7km/h 62% 0.00in /  0mm 33.0 W/m2
09:17 68.5 °F /  20.3 °C 54.5 °F /  12.5 °C 29.93in /  1013.4hPa Calm   5.0mph /  8km/h 61% 0.00in /  0mm 35.0 W/m2
09:23 69.1 °F /  20.6 °C 54.7 °F /  12.6 °C 29.94in /  1013.8hPa ESE 4.9mph /  7.9km/h 7.0mph /  11.3km/h 60% 0.00in /  0mm 35.0 W/m2
09:29 69.6 °F /  20.9 °C 53.8 °F /  12.1 °C 29.93in /  1013.4hPa ESE 2.0mph /  3.2km/h 8.0mph /  12.9km/h 57% 0.00in /  0mm 39.0 W/m2
09:35 70.2 °F /  21.2 °C 54.1 °F /  12.3 °C 29.94in /  1013.8hPa ENE 4.9mph /  7.9km/h 7.0mph /  11.3km/h 57% 0.00in /  0mm 51.0 W/m2
09:41 70.7 °F /  21.5 °C 54.3 °F /  12.4 °C 29.93in /  1013.4hPa ESE 2.9mph /  4.7km/h 6.0mph /  9.7km/h 56% 0.00in /  0mm 86.0 W/m2
09:47 71.1 °F /  21.7 °C 54.1 °F /  12.3 °C 29.93in /  1013.4hPa SE 4.0mph /  6.4km/h 8.0mph /  12.9km/h 55% 0.00in /  0mm 552.0 W/m2
09:54 71.2 °F /  21.8 °C 54.3 °F /  12.4 °C 29.93in /  1013.4hPa Calm   5.0mph /  8km/h 55% 0.00in /  0mm 441.0 W/m2
10:00 71.8 °F /  22.1 °C 54.3 °F /  12.4 °C 29.93in /  1013.4hPa Calm   3.0mph /  4.8km/h 54% 0.00in /  0mm 686.0 W/m2
10:06 72.3 °F /  22.4 °C 54.1 °F /  12.3 °C 29.93in /  1013.4hPa NE 4.9mph /  7.9km/h 6.0mph /  9.7km/h 53% 0.00in /  0mm 707.0 W/m2
10:12 73.2 °F /  22.9 °C 54.0 °F /  12.2 °C 29.94in /  1013.8hPa Calm   7.0mph /  11.3km/h 51% 0.00in /  0mm 735.0 W/m2
10:18 74.1 °F /  23.4 °C 55.4 °F /  13 °C 29.93in /  1013.4hPa ENE 0.9mph /  1.4km/h 3.0mph /  4.8km/h 52% 0.00in /  0mm 754.0 W/m2
10:24 74.8 °F /  23.8 °C 55.6 °F /  13.1 °C 29.93in /  1013.4hPa SE 2.0mph /  3.2km/h 8.0mph /  12.9km/h 51% 0.00in /  0mm 766.0 W/m2
10:30 75.4 °F /  24.1 °C 55.4 °F /  13 °C 29.93in /  1013.4hPa NNE 4.0mph /  6.4km/h 5.0mph /  8km/h 50% 0.00in /  0mm 779.0 W/m2
10:36 75.9 °F /  24.4 °C 53.6 °F /  12 °C 29.93in /  1013.4hPa ENE 4.9mph /  7.9km/h 8.0mph /  12.9km/h 46% 0.00in /  0mm 802.0 W/m2
10:42 76.5 °F /  24.7 °C 53.6 °F /  12 °C 29.93in /  1013.4hPa NNE 0.9mph /  1.4km/h 5.0mph /  8km/h 45% 0.00in /  0mm 870.0 W/m2
10:49 76.5 °F /  24.7 °C 54.7 °F /  12.6 °C 29.93in /  1013.4hPa ENE 4.0mph /  6.4km/h 7.0mph /  11.3km/h 47% 0.00in /  0mm 835.0 W/m2
10:55 76.8 °F /  24.9 °C 54.5 °F /  12.5 °C 29.93in /  1013.4hPa NE 0.9mph /  1.4km/h 7.0mph /  11.3km/h 46% 0.00in /  0mm 837.0 W/m2
11:01 77.2 °F /  25.1 °C 54.9 °F /  12.7 °C 29.93in /  1013.4hPa ENE 4.0mph /  6.4km/h 7.0mph /  11.3km/h 46% 0.00in /  0mm 863.0 W/m2
11:07 77.4 °F /  25.2 °C 53.8 °F /  12.1 °C 29.93in /  1013.4hPa ENE 2.9mph /  4.7km/h 5.0mph /  8km/h 44% 0.00in /  0mm 882.0 W/m2
11:13 77.5 °F /  25.3 °C 54.0 °F /  12.2 °C 29.93in /  1013.4hPa East 6.0mph /  9.7km/h 8.0mph /  12.9km/h 44% 0.00in /  0mm 912.0 W/m2
11:19 77.7 °F /  25.4 °C 53.4 °F /  11.9 °C 29.93in /  1013.4hPa NE 2.9mph /  4.7km/h 8.0mph /  12.9km/h 43% 0.00in /  0mm 914.0 W/m2
11:25 78.1 °F /  25.6 °C 52.5 °F /  11.4 °C 29.92in /  1013.1hPa NE 2.0mph /  3.2km/h 4.0mph /  6.4km/h 41% 0.00in /  0mm 921.0 W/m2
11:32 78.8 °F /  26 °C 53.1 °F /  11.7 °C 29.92in /  1013.1hPa WNW 2.0mph /  3.2km/h 5.0mph /  8km/h 41% 0.00in /  0mm 974.0 W/m2
11:38 79.5 °F /  26.4 °C 53.8 °F /  12.1 °C 29.92in /  1013.1hPa ENE 6.0mph /  9.7km/h 7.0mph /  11.3km/h 41% 0.00in /  0mm 599.0 W/m2
11:44 79.7 °F /  26.5 °C 53.2 °F /  11.8 °C 29.91in /  1012.8hPa NE 2.0mph /  3.2km/h 7.0mph /  11.3km/h 40% 0.00in /  0mm 1027.0 W/m2
11:50 79.9 °F /  26.6 °C 53.4 °F /  11.9 °C 29.91in /  1012.8hPa NE 2.0mph /  3.2km/h 7.0mph /  11.3km/h 40% 0.00in /  0mm 1056.0 W/m2
11:56 79.3 °F /  26.3 °C 52.9 °F /  11.6 °C 29.91in /  1012.8hPa NE 2.9mph /  4.7km/h 6.0mph /  9.7km/h 40% 0.00in /  0mm 144.0 W/m2
12:02 79.5 °F /  26.4 °C 52.3 °F /  11.3 °C 29.91in /  1012.8hPa ENE 0.9mph /  1.4km/h 6.0mph /  9.7km/h 39% 0.00in /  0mm 997.0 W/m2
12:08 79.9 °F /  26.6 °C 52.7 °F /  11.5 °C 29.91in /  1012.8hPa NE 2.0mph /  3.2km/h 4.0mph /  6.4km/h 39% 0.00in /  0mm 160.0 W/m2
12:14 79.5 °F /  26.4 °C 51.6 °F /  10.9 °C 29.90in /  1012.4hPa ENE 2.0mph /  3.2km/h 11.0mph /  17.7km/h 38% 0.00in /  0mm 998.0 W/m2
12:21 79.9 °F /  26.6 °C 51.3 °F /  10.7 °C 29.90in /  1012.4hPa SE 2.0mph /  3.2km/h 5.0mph /  8km/h 37% 0.00in /  0mm 573.0 W/m2
12:27 79.7 °F /  26.5 °C 51.8 °F /  11 °C 29.90in /  1012.4hPa Calm   2.0mph /  3.2km/h 38% 0.00in /  0mm 527.0 W/m2
12:33 79.5 °F /  26.4 °C 52.3 °F /  11.3 °C 29.90in /  1012.4hPa SE 2.0mph /  3.2km/h 7.0mph /  11.3km/h 39% 0.00in /  0mm 919.0 W/m2
12:39 80.1 °F /  26.7 °C 52.2 °F /  11.2 °C 29.90in /  1012.4hPa NNE 4.0mph /  6.4km/h 10.0mph /  16.1km/h 38% 0.00in /  0mm 1141.0 W/m2
12:47 80.8 °F /  27.1 °C 52.9 °F /  11.6 °C 29.89in /  1012.1hPa Calm   7.0mph /  11.3km/h 38% 0.00in /  0mm 489.0 W/m2
12:53 80.8 °F /  27.1 °C 52.9 °F /  11.6 °C 29.89in /  1012.1hPa Calm   7.0mph /  11.3km/h 38% 0.00in /  0mm 1099.0 W/m2
12:59 81.1 °F /  27.3 °C 51.6 °F /  10.9 °C 29.89in /  1012.1hPa ESE 4.0mph /  6.4km/h 10.0mph /  16.1km/h 36% 0.00in /  0mm 1055.0 W/m2
13:06 81.7 °F /  27.6 °C 50.5 °F /  10.3 °C 29.88in /  1011.7hPa NNE 4.9mph /  7.9km/h 7.0mph /  11.3km/h 34% 0.00in /  0mm 967.0 W/m2
13:12 81.1 °F /  27.3 °C 49.3 °F /  9.6 °C 29.88in /  1011.7hPa NW 0.9mph /  1.4km/h 2.0mph /  3.2km/h 33% 0.00in /  0mm 489.0 W/m2
13:18 81.3 °F /  27.4 °C 51.8 °F /  11 °C 29.88in /  1011.7hPa SSE 2.9mph /  4.7km/h 6.0mph /  9.7km/h 36% 0.00in /  0mm 1150.0 W/m2
13:24 81.5 °F /  27.5 °C 51.3 °F /  10.7 °C 29.88in /  1011.7hPa North 6.9mph /  11.1km/h 10.0mph /  16.1km/h 35% 0.00in /  0mm 1208.0 W/m2
13:30 81.1 °F /  27.3 °C 50.9 °F /  10.5 °C 29.88in /  1011.7hPa NNW 6.0mph /  9.7km/h 8.0mph /  12.9km/h 35% 0.00in /  0mm 1158.0 W/m2
13:36 81.3 °F /  27.4 °C 52.5 °F /  11.4 °C 29.87in /  1011.4hPa NNE 2.9mph /  4.7km/h 6.0mph /  9.7km/h 37% 0.00in /  0mm 1141.0 W/m2
13:42 82.0 °F /  27.8 °C 53.2 °F /  11.8 °C 29.87in /  1011.4hPa ENE 2.9mph /  4.7km/h 9.0mph /  14.5km/h 37% 0.00in /  0mm 1081.0 W/m2
13:48 82.6 °F /  28.1 °C 52.2 °F /  11.2 °C 29.87in /  1011.4hPa NNW 2.0mph /  3.2km/h 5.0mph /  8km/h 35% 0.00in /  0mm 1118.0 W/m2
13:55 82.9 °F /  28.3 °C 53.2 °F /  11.8 °C 29.87in /  1011.4hPa SSW 0.9mph /  1.4km/h 4.0mph /  6.4km/h 36% 0.00in /  0mm 1132.0 W/m2
14:01 82.8 °F /  28.2 °C 51.4 °F /  10.8 °C 29.86in /  1011.1hPa ENE 4.0mph /  6.4km/h 6.0mph /  9.7km/h 34% 0.00in /  0mm 258.0 W/m2
14:07 82.8 °F /  28.2 °C 51.4 °F /  10.8 °C 29.86in /  1011.1hPa NE 4.9mph /  7.9km/h 8.0mph /  12.9km/h 34% 0.00in /  0mm 1160.0 W/m2
14:13 83.3 °F /  28.5 °C 51.3 °F /  10.7 °C 29.85in /  1010.7hPa Calm   5.0mph /  8km/h 33% 0.00in /  0mm 802.0 W/m2
14:19 83.5 °F /  28.6 °C 52.2 °F /  11.2 °C 29.86in /  1011.1hPa NE 0.9mph /  1.4km/h 7.0mph /  11.3km/h 34% 0.00in /  0mm 960.0 W/m2
14:25 83.5 °F /  28.6 °C 52.2 °F /  11.2 °C 29.85in /  1010.7hPa NE 4.0mph /  6.4km/h 6.0mph /  9.7km/h 34% 0.00in /  0mm 960.0 W/m2
14:31 83.3 °F /  28.5 °C 52.9 °F /  11.6 °C 29.85in /  1010.7hPa East 0.9mph /  1.4km/h 4.0mph /  6.4km/h 35% 0.00in /  0mm 420.0 W/m2
14:37 82.8 °F /  28.2 °C 52.3 °F /  11.3 °C 29.85in /  1010.7hPa SE 2.9mph /  4.7km/h 4.0mph /  6.4km/h 35% 0.00in /  0mm 290.0 W/m2
14:43 82.6 °F /  28.1 °C 52.2 °F /  11.2 °C 29.85in /  1010.7hPa NNE 2.9mph /  4.7km/h 10.0mph /  16.1km/h 35% 0.00in /  0mm 216.0 W/m2
14:50 82.0 °F /  27.8 °C 51.6 °F /  10.9 °C 29.84in /  1010.4hPa North 6.0mph /  9.7km/h 8.0mph /  12.9km/h 35% 0.00in /  0mm 967.0 W/m2
14:56 82.4 °F /  28 °C 52.0 °F /  11.1 °C 29.84in /  1010.4hPa NE 2.9mph /  4.7km/h 6.0mph /  9.7km/h 35% 0.00in /  0mm 958.0 W/m2
15:02 83.1 °F /  28.4 °C 51.8 °F /  11 °C 29.84in /  1010.4hPa WSW 0.9mph /  1.4km/h 3.0mph /  4.8km/h 34% 0.00in /  0mm 962.0 W/m2
15:08 83.5 °F /  28.6 °C 51.4 °F /  10.8 °C 29.84in /  1010.4hPa North 0.9mph /  1.4km/h 5.0mph /  8km/h 33% 0.00in /  0mm 174.0 W/m2
15:14 83.1 °F /  28.4 °C 51.1 °F /  10.6 °C 29.83in /  1010hPa Calm   5.0mph /  8km/h 33% 0.00in /  0mm 912.0 W/m2
15:20 83.1 °F /  28.4 °C 52.7 °F /  11.5 °C 29.83in /  1010hPa ENE 4.0mph /  6.4km/h 5.0mph /  8km/h 35% 0.00in /  0mm 153.0 W/m2
15:27 82.6 °F /  28.1 °C 51.4 °F /  10.8 °C 29.83in /  1010hPa NNE 2.0mph /  3.2km/h 5.0mph /  8km/h 34% 0.00in /  0mm 162.0 W/m2
15:32 81.7 °F /  27.6 °C 51.4 °F /  10.8 °C 29.83in /  1010hPa Calm   5.0mph /  8km/h 35% 0.00in /  0mm 149.0 W/m2
15:39 81.1 °F /  27.3 °C 50.9 °F /  10.5 °C 29.83in /  1010hPa ENE 0.9mph /  1.4km/h 4.0mph /  6.4km/h 35% 0.00in /  0mm 139.0 W/m2
15:45 80.8 °F /  27.1 °C 50.5 °F /  10.3 °C 29.83in /  1010hPa Calm   1.0mph /  1.6km/h 35% 0.00in /  0mm 132.0 W/m2
15:53 80.6 °F /  27 °C 52.0 °F /  11.1 °C 29.83in /  1010hPa Calm   1.0mph /  1.6km/h 37% 0.00in /  0mm 174.0 W/m2
15:59 80.4 °F /  26.9 °C 51.1 °F /  10.6 °C 29.83in /  1010hPa NE 4.0mph /  6.4km/h 4.0mph /  6.4km/h 36% 0.00in /  0mm 120.0 W/m2
16:05 80.1 °F /  26.7 °C 51.4 °F /  10.8 °C 29.83in /  1010hPa NE 2.0mph /  3.2km/h 4.0mph /  6.4km/h 37% 0.00in /  0mm 134.0 W/m2
16:11 79.9 °F /  26.6 °C 51.3 °F /  10.7 °C 29.83in /  1010hPa Calm   4.0mph /  6.4km/h 37% 0.00in /  0mm 114.0 W/m2
16:17 79.7 °F /  26.5 °C 51.8 °F /  11 °C 29.83in /  1010hPa SE 0.9mph /  1.4km/h 2.0mph /  3.2km/h 38% 0.00in /  0mm 102.0 W/m2
16:24 79.3 °F /  26.3 °C 50.0 °F /  10 °C 29.82in /  1009.7hPa Calm   3.0mph /  4.8km/h 36% 0.00in /  0mm 90.0 W/m2
16:30 79.2 °F /  26.2 °C 52.2 °F /  11.2 °C 29.82in /  1009.7hPa Calm     39% 0.00in /  0mm 116.0 W/m2
16:36 79.2 °F /  26.2 °C 51.4 °F /  10.8 °C 29.82in /  1009.7hPa Calm   3.0mph /  4.8km/h 38% 0.00in /  0mm 626.0 W/m2
16:48 81.3 °F /  27.4 °C 51.8 °F /  11 °C 29.82in /  1009.7hPa SSE 2.0mph /  3.2km/h 3.0mph /  4.8km/h 36% 0.00in /  0mm 591.0 W/m2
16:56 82.6 °F /  28.1 °C 51.4 °F /  10.8 °C 29.82in /  1009.7hPa South 8.1mph /  13km/h 8.1mph /  13km/h 34% 0.00in /  0mm 515.0 W/m2
17:02 82.4 °F /  28 °C 52.0 °F /  11.1 °C 29.82in /  1009.7hPa SSE 2.0mph /  3.2km/h 8.0mph /  12.9km/h 35% 0.00in /  0mm 93.0 W/m2
17:08 81.9 °F /  27.7 °C 52.3 °F /  11.3 °C 29.82in /  1009.7hPa East 0.9mph /  1.4km/h 4.0mph /  6.4km/h 36% 0.00in /  0mm 72.0 W/m2
17:15 81.3 °F /  27.4 °C 52.5 °F /  11.4 °C 29.82in /  1009.7hPa Calm   4.0mph /  6.4km/h 37% 0.00in /  0mm 69.0 W/m2
17:21 80.6 °F /  27 °C 52.0 °F /  11.1 °C 29.82in /  1009.7hPa Calm   3.0mph /  4.8km/h 37% 0.00in /  0mm 65.0 W/m2
17:27 80.1 °F /  26.7 °C 52.2 °F /  11.2 °C 29.82in /  1009.7hPa Calm   3.0mph /  4.8km/h 38% 0.00in /  0mm 69.0 W/m2
17:33 79.9 °F /  26.6 °C 52.0 °F /  11.1 °C 29.82in /  1009.7hPa NE 0.9mph /  1.4km/h 2.0mph /  3.2km/h 38% 0.00in /  0mm 79.0 W/m2
17:39 79.3 °F /  26.3 °C 51.4 °F /  10.8 °C 29.82in /  1009.7hPa North 0.9mph /  1.4km/h 4.0mph /  6.4km/h 38% 0.00in /  0mm 102.0 W/m2
17:45 79.0 °F /  26.1 °C 52.0 °F /  11.1 °C 29.82in /  1009.7hPa Calm   3.0mph /  4.8km/h 39% 0.00in /  0mm 97.0 W/m2
17:51 78.8 °F /  26 °C 52.5 °F /  11.4 °C 29.82in /  1009.7hPa Calm   2.0mph /  3.2km/h 40% 0.00in /  0mm 86.0 W/m2
17:58 78.6 °F /  25.9 °C 52.3 °F /  11.3 °C 29.82in /  1009.7hPa Calm   3.0mph /  4.8km/h 40% 0.00in /  0mm 76.0 W/m2
18:04 78.4 °F /  25.8 °C 51.4 °F /  10.8 °C 29.83in /  1010hPa Calm   4.0mph /  6.4km/h 39% 0.00in /  0mm 60.0 W/m2
18:10 78.3 °F /  25.7 °C 52.0 °F /  11.1 °C 29.83in /  1010hPa Calm   1.0mph /  1.6km/h 40% 0.00in /  0mm 51.0 W/m2
18:16 78.1 °F /  25.6 °C 51.1 °F /  10.6 °C 29.83in /  1010hPa North 0.9mph /  1.4km/h 5.0mph /  8km/h 39% 0.00in /  0mm 39.0 W/m2
18:22 77.7 °F /  25.4 °C 51.4 °F /  10.8 °C 29.83in /  1010hPa NNE 2.0mph /  3.2km/h 3.0mph /  4.8km/h 40% 0.00in /  0mm 30.0 W/m2
18:28 77.5 °F /  25.3 °C 52.0 °F /  11.1 °C 29.83in /  1010hPa NE 2.0mph /  3.2km/h 5.0mph /  8km/h 41% 0.00in /  0mm 19.0 W/m2
18:34 77.4 °F /  25.2 °C 51.8 °F /  11 °C 29.83in /  1010hPa Calm   1.0mph /  1.6km/h 41% 0.00in /  0mm 14.0 W/m2
18:40 77.2 °F /  25.1 °C 51.6 °F /  10.9 °C 29.83in /  1010hPa Calm   2.0mph /  3.2km/h 41% 0.00in /  0mm 12.0 W/m2
18:47 77.0 °F /  25 °C 51.4 °F /  10.8 °C 29.83in /  1010hPa Calm   2.0mph /  3.2km/h 41% 0.00in /  0mm 12.0 W/m2
18:53 76.8 °F /  24.9 °C 51.3 °F /  10.7 °C 29.83in /  1010hPa Calm   2.0mph /  3.2km/h 41% 0.00in /  0mm 11.0 W/m2
18:59 76.6 °F /  24.8 °C 52.5 °F /  11.4 °C 29.84in /  1010.4hPa Calm     43% 0.00in /  0mm 7.0 W/m2
19:05 76.3 °F /  24.6 °C 52.7 °F /  11.5 °C 29.84in /  1010.4hPa Calm   1.0mph /  1.6km/h 44% 0.00in /  0mm 0.0 W/m2
19:11 75.9 °F /  24.4 °C 53.6 °F /  12 °C 29.84in /  1010.4hPa Calm     46% 0.00in /  0mm 0.0 W/m2
19:17 75.6 °F /  24.2 °C 54.5 °F /  12.5 °C 29.84in /  1010.4hPa Calm     48% 0.00in /  0mm 0.0 W/m2
19:23 75.0 °F /  23.9 °C 54.0 °F /  12.2 °C 29.84in /  1010.4hPa Calm   1.0mph /  1.6km/h 48% 0.00in /  0mm 0.0 W/m2
19:29 74.5 °F /  23.6 °C 53.4 °F /  11.9 °C 29.84in /  1010.4hPa Calm     48% 0.00in /  0mm 0.0 W/m2
19:36 73.8 °F /  23.2 °C 53.4 °F /  11.9 °C 29.84in /  1010.4hPa Calm     49% 0.00in /  0mm 0.0 W/m2
19:42 73.4 °F /  23 °C 54.1 °F /  12.3 °C 29.84in /  1010.4hPa Calm     51% 0.00in /  0mm 0.0 W/m2
19:48 72.9 °F /  22.7 °C 53.6 °F /  12 °C 29.84in /  1010.4hPa Calm     51% 0.00in /  0mm 0.0 W/m2
19:54 72.7 °F /  22.6 °C 54.5 °F /  12.5 °C 29.85in /  1010.7hPa Calm     53% 0.00in /  0mm 0.0 W/m2
20:00 72.1 °F /  22.3 °C 54.5 °F /  12.5 °C 29.85in /  1010.7hPa Calm     54% 0.00in /  0mm 0.0 W/m2
20:06 71.8 °F /  22.1 °C 54.3 °F /  12.4 °C 29.85in /  1010.7hPa Calm     54% 0.00in /  0mm 0.0 W/m2
20:12 71.2 °F /  21.8 °C 53.2 °F /  11.8 °C 29.86in /  1011.1hPa Calm     53% 0.00in /  0mm 0.0 W/m2
20:18 71.1 °F /  21.7 °C 53.6 °F /  12 °C 29.86in /  1011.1hPa Calm   1.0mph /  1.6km/h 54% 0.00in /  0mm 0.0 W/m2
20:25 70.5 °F /  21.4 °C 53.6 °F /  12 °C 29.87in /  1011.4hPa Calm     55% 0.00in /  0mm 0.0 W/m2
20:31 70.3 °F /  21.3 °C 54.0 °F /  12.2 °C 29.87in /  1011.4hPa Calm   2.0mph /  3.2km/h 56% 0.00in /  0mm 0.0 W/m2
20:37 70.3 °F /  21.3 °C 53.4 °F /  11.9 °C 29.87in /  1011.4hPa Calm     55% 0.00in /  0mm 0.0 W/m2
20:43 70.3 °F /  21.3 °C 54.3 °F /  12.4 °C 29.87in /  1011.4hPa Calm     57% 0.00in /  0mm 0.0 W/m2
20:49 70.5 °F /  21.4 °C 54.1 °F /  12.3 °C 29.87in /  1011.4hPa Calm     56% 0.00in /  0mm 0.0 W/m2
20:55 70.5 °F /  21.4 °C 54.1 °F /  12.3 °C 29.88in /  1011.7hPa Calm   1.0mph /  1.6km/h 56% 0.00in /  0mm 0.0 W/m2
21:01 70.5 °F /  21.4 °C 54.1 °F /  12.3 °C 29.88in /  1011.7hPa Calm   2.0mph /  3.2km/h 56% 0.00in /  0mm 0.0 W/m2
21:07 70.7 °F /  21.5 °C 54.3 °F /  12.4 °C 29.88in /  1011.7hPa East 0.9mph /  1.4km/h 3.0mph /  4.8km/h 56% 0.00in /  0mm 0.0 W/m2
21:14 70.5 °F /  21.4 °C 54.1 °F /  12.3 °C 29.88in /  1011.7hPa Calm   1.0mph /  1.6km/h 56% 0.00in /  0mm 0.0 W/m2
21:20 70.5 °F /  21.4 °C 54.5 °F /  12.5 °C 29.88in /  1011.7hPa Calm   1.0mph /  1.6km/h 57% 0.00in /  0mm 0.0 W/m2
21:26 70.3 °F /  21.3 °C 54.3 °F /  12.4 °C 29.89in /  1012.1hPa Calm   1.0mph /  1.6km/h 57% 0.00in /  0mm 0.0 W/m2
21:32 70.2 °F /  21.2 °C 54.1 °F /  12.3 °C 29.89in /  1012.1hPa Calm     57% 0.00in /  0mm 0.0 W/m2
21:38 70.0 °F /  21.1 °C 54.0 °F /  12.2 °C 29.89in /  1012.1hPa Calm     57% 0.00in /  0mm 0.0 W/m2
21:44 69.6 °F /  20.9 °C 53.8 °F /  12.1 °C 29.89in /  1012.1hPa Calm   1.0mph /  1.6km/h 57% 0.00in /  0mm 0.0 W/m2
21:50 69.4 °F /  20.8 °C 54.0 °F /  12.2 °C 29.90in /  1012.4hPa Calm     58% 0.00in /  0mm 0.0 W/m2
21:57 69.1 °F /  20.6 °C 54.1 °F /  12.3 °C 29.90in /  1012.4hPa East 0.9mph /  1.4km/h 1.0mph /  1.6km/h 59% 0.00in /  0mm 0.0 W/m2
22:03 68.7 °F /  20.4 °C 54.3 °F /  12.4 °C 29.90in /  1012.4hPa East 2.0mph /  3.2km/h 2.0mph /  3.2km/h 60% 0.00in /  0mm 0.0 W/m2
22:09 68.5 °F /  20.3 °C 54.5 °F /  12.5 °C 29.90in /  1012.4hPa Calm   1.0mph /  1.6km/h 61% 0.00in /  0mm 0.0 W/m2
22:15 68.2 °F /  20.1 °C 54.7 °F /  12.6 °C 29.90in /  1012.4hPa Calm   3.0mph /  4.8km/h 62% 0.00in /  0mm 0.0 W/m2
22:21 67.6 °F /  19.8 °C 54.7 °F /  12.6 °C 29.90in /  1012.4hPa Calm   2.0mph /  3.2km/h 63% 0.00in /  0mm 0.0 W/m2
22:27 67.5 °F /  19.7 °C 54.9 °F /  12.7 °C 29.90in /  1012.4hPa Calm   2.0mph /  3.2km/h 64% 0.00in /  0mm 0.0 W/m2
22:33 67.3 °F /  19.6 °C 54.7 °F /  12.6 °C 29.90in /  1012.4hPa Calm   2.0mph /  3.2km/h 64% 0.00in /  0mm 0.0 W/m2
22:39 66.9 °F /  19.4 °C 54.9 °F /  12.7 °C 29.90in /  1012.4hPa Calm   2.0mph /  3.2km/h 65% 0.00in /  0mm 0.0 W/m2
22:45 66.7 °F /  19.3 °C 55.0 °F /  12.8 °C 29.90in /  1012.4hPa Calm   2.0mph /  3.2km/h 66% 0.00in /  0mm 0.0 W/m2
22:52 66.6 °F /  19.2 °C 54.9 °F /  12.7 °C 29.90in /  1012.4hPa Calm   1.0mph /  1.6km/h 66% 0.00in /  0mm 0.0 W/m2
22:58 66.4 °F /  19.1 °C 54.7 °F /  12.6 °C 29.90in /  1012.4hPa Calm   3.0mph /  4.8km/h 66% 0.00in /  0mm 0.0 W/m2
23:04 66.4 °F /  19.1 °C 55.0 °F /  12.8 °C 29.90in /  1012.4hPa ENE 0.9mph /  1.4km/h 2.0mph /  3.2km/h 67% 0.00in /  0mm 0.0 W/m2
23:10 66.2 °F /  19 °C 54.9 °F /  12.7 °C 29.90in /  1012.4hPa East 0.9mph /  1.4km/h 2.0mph /  3.2km/h 67% 0.00in /  0mm 0.0 W/m2
23:16 66.0 °F /  18.9 °C 54.7 °F /  12.6 °C 29.90in /  1012.4hPa Calm   2.0mph /  3.2km/h 67% 0.00in /  0mm 0.0 W/m2
23:22 66.0 °F /  18.9 °C 54.7 °F /  12.6 °C 29.90in /  1012.4hPa ENE 0.9mph /  1.4km/h 2.0mph /  3.2km/h 67% 0.00in /  0mm 0.0 W/m2
23:28 66.0 °F /  18.9 °C 54.7 °F /  12.6 °C 29.90in /  1012.4hPa Calm   3.0mph /  4.8km/h 67% 0.00in /  0mm 0.0 W/m2
23:34 65.8 °F /  18.8 °C 54.5 °F /  12.5 °C 29.90in /  1012.4hPa Calm   2.0mph /  3.2km/h 67% 0.00in /  0mm 0.0 W/m2
23:40 65.8 °F /  18.8 °C 54.5 °F /  12.5 °C 29.90in /  1012.4hPa Calm   1.0mph /  1.6km/h 67% 0.00in /  0mm 0.0 W/m2
23:46 65.8 °F /  18.8 °C 54.5 °F /  12.5 °C 29.89in /  1012.1hPa Calm   1.0mph /  1.6km/h 67% 0.00in /  0mm 0.0 W/m2
23:52 65.7 °F /  18.7 °C 54.3 °F /  12.4 °C 29.89in /  1012.1hPa Calm   2.0mph /  3.2km/h 67% 0.00in /  0mm 0.0 W/m2
23:58 65.7 °F /  18.7 °C 54.3 °F /  12.4 °C 29.89in /  1012.1hPa Calm     67% 0.00in /  0mm 0.0 W/m2
Olympia, Windhoek, Namibia
Compliments of Weather Underground - 3 mb